Time;durP1;ratioP1;P1;durP2;ratioP2;P2;SDS_P1;SDS_P2;PMS_P1;PMS_P2;Temp;Humidity;BMP_temperature;BMP_pressure;BME280_temperature;BME280_humidity;BME280_pressure;Samples;Min_cycle;Max_cycle;Signal;HPM_P1;HPM_P2
2023/01/19 00:00:52;;;;;;;2.88;1.45;;;16.00;62.80;;;;;;10408780;28;20099;-57
2023/01/19 00:05:53;;;;;;;2.90;1.88;;;15.90;62.80;;;;;;10409071;28;20025;-58
2023/01/19 00:10:53;;;;;;;3.10;2.15;;;15.90;62.90;;;;;;10408303;28;20132;-58
2023/01/19 00:15:55;;;;;;;3.80;1.77;;;15.90;62.80;;;;;;10434398;28;20384;-57
2023/01/19 00:20:55;;;;;;;3.95;1.67;;;15.90;62.80;;;;;;10415385;28;20056;-58
2023/01/19 00:25:56;;;;;;;2.70;2.00;;;15.90;62.80;;;;;;10448567;28;20494;-57
2023/01/19 00:30:57;;;;;;;3.72;1.42;;;15.90;62.70;;;;;;10442043;28;20017;-58
2023/01/19 00:35:57;;;;;;;2.70;2.45;;;15.90;62.80;;;;;;10396061;28;20059;-58
2023/01/19 00:40:58;;;;;;;2.60;1.83;;;15.90;62.90;;;;;;10421308;28;20060;-58
2023/01/19 00:45:59;;;;;;;2.30;1.30;;;15.90;62.80;;;;;;10424880;28;20104;-58
2023/01/19 00:50:59;;;;;;;3.30;1.77;;;15.90;62.70;;;;;;10415156;28;20500;-57
2023/01/19 00:56:00;;;;;;;4.53;2.15;;;16.00;62.50;;;;;;10432571;28;20392;-56
2023/01/19 01:01:03;;;;;;;2.03;1.30;;;16.10;62.30;;;;;;10420327;28;20120;-56
2023/01/19 01:06:07;;;;;;;1.95;1.50;;;16.10;62.30;;;;;;10424257;28;20033;-58
2023/01/19 01:11:07;;;;;;;3.25;2.13;;;16.10;62.40;;;;;;10429802;28;20045;-58
2023/01/19 01:16:08;;;;;;;2.47;1.20;;;16.10;62.40;;;;;;10439401;28;20029;-57
2023/01/19 01:21:11;;;;;;;2.00;1.25;;;16.10;62.30;;;;;;10447838;28;20066;-57
2023/01/19 01:26:12;;;;;;;2.50;1.52;;;16.00;62.40;;;;;;10446955;28;20412;-57
2023/01/19 01:31:12;;;;;;;2.95;1.73;;;16.00;62.40;;;;;;10446570;28;20048;-58
2023/01/19 01:36:13;;;;;;;2.58;1.27;;;16.00;62.50;;;;;;10463041;28;20025;-57
2023/01/19 01:41:14;;;;;;;3.05;1.70;;;16.00;62.50;;;;;;10408196;28;20013;-57
2023/01/19 01:46:16;;;;;;;2.03;1.33;;;16.00;62.40;;;;;;10407293;28;20520;-57
2023/01/19 01:51:37;;;;;;;2.17;1.17;;;16.00;62.40;;;;;;10424250;28;20107;-58
2023/01/19 01:56:42;;;;;;;2.60;1.40;;;16.00;62.40;;;;;;10438139;28;20049;-58
2023/01/19 02:17:42;;;;;;;2.90;1.70;;;16.00;62.30;;;;;;10431377;28;20028;-58
2023/01/19 02:22:50;;;;;;;2.60;1.40;;;16.00;62.30;;;;;;10445068;28;20460;-57
2023/01/19 02:27:52;;;;;;;2.70;1.50;;;16.00;62.30;;;;;;10462128;28;20033;-57
2023/01/19 02:32:52;;;;;;;4.35;1.30;;;16.00;62.20;;;;;;10434747;28;20034;-58
2023/01/19 02:37:53;;;;;;;2.17;1.00;;;16.00;62.20;;;;;;10424318;28;20029;-58
2023/01/19 02:42:57;;;;;;;1.75;1.13;;;16.00;62.30;;;;;;10415446;28;20109;-58
2023/01/19 02:47:57;;;;;;;2.15;1.05;;;16.00;62.20;;;;;;10404260;28;20516;-58
2023/01/19 02:53:16;;;;;;;2.25;1.13;;;16.00;62.10;;;;;;10404882;28;20033;-57
2023/01/19 02:58:46;;;;;;;2.33;1.25;;;16.00;62.10;;;;;;10405338;28;20135;-57
2023/01/19 03:04:18;;;;;;;1.85;1.10;;;16.00;62.20;;;;;;10426836;28;20021;-57
2023/01/19 03:09:45;;;;;;;1.75;0.90;;;16.00;62.20;;;;;;10398104;28;20037;-57
2023/01/19 03:14:47;;;;;;;2.30;1.00;;;16.00;62.10;;;;;;10438040;28;20550;-58
2023/01/19 03:19:49;;;;;;;0.85;0.70;;;16.00;62.00;;;;;;10446188;28;20052;-58
2023/01/19 03:24:52;;;;;;;2.50;1.02;;;16.00;62.00;;;;;;10438369;28;20036;-57
2023/01/19 03:29:59;;;;;;;1.60;0.90;;;16.00;62.00;;;;;;10451582;28;20027;-58
2023/01/19 03:35:05;;;;;;;1.33;0.98;;;16.00;62.10;;;;;;10450336;28;20135;-58
2023/01/19 03:40:07;;;;;;;1.63;1.05;;;16.00;61.90;;;;;;10433043;28;20022;-57
2023/01/19 03:45:11;;;;;;;2.00;0.75;;;16.00;62.00;;;;;;10420795;28;20021;-57
2023/01/19 03:50:22;;;;;;;1.77;1.05;;;16.00;62.00;;;;;;10436917;28;20113;-57
2023/01/19 03:55:23;;;;;;;2.65;1.15;;;16.00;62.00;;;;;;10444853;28;20499;-57
2023/01/19 04:00:24;;;;;;;2.50;1.73;;;16.00;62.00;;;;;;10451202;28;20124;-56
2023/01/19 04:05:25;;;;;;;1.52;0.80;;;16.00;62.00;;;;;;10450155;28;20021;-58
2023/01/19 04:10:26;;;;;;;1.15;0.55;;;16.00;61.90;;;;;;10449300;28;20077;-57
2023/01/19 04:15:28;;;;;;;1.17;0.60;;;16.00;62.00;;;;;;10405712;28;20029;-57
2023/01/19 04:20:29;;;;;;;1.90;1.17;;;16.00;62.00;;;;;;10410445;28;20017;-57
2023/01/19 04:25:29;;;;;;;1.23;0.75;;;16.00;62.00;;;;;;10446571;28;20033;-58
2023/01/19 04:30:30;;;;;;;1.10;0.60;;;16.00;61.90;;;;;;10447991;28;20068;-57
2023/01/19 04:35:33;;;;;;;1.48;0.80;;;16.00;61.80;;;;;;10444322;28;20053;-56
2023/01/19 04:40:33;;;;;;;1.33;0.85;;;16.00;61.80;;;;;;10434565;28;20026;-57
2023/01/19 04:45:35;;;;;;;1.65;0.70;;;16.00;61.80;;;;;;10419468;28;20573;-57
2023/01/19 04:50:36;;;;;;;1.50;0.80;;;16.00;61.80;;;;;;10423982;28;20361;-57
2023/01/19 04:55:37;;;;;;;2.28;0.82;;;16.00;61.90;;;;;;10436192;28;20041;-57
2023/01/19 05:00:38;;;;;;;0.90;0.50;;;16.00;61.80;;;;;;10429049;28;20449;-58
2023/01/19 05:05:38;;;;;;;0.63;0.40;;;16.00;61.80;;;;;;10433717;28;20053;-58
2023/01/19 05:10:39;;;;;;;1.95;0.52;;;16.00;61.70;;;;;;10424151;28;20131;-57
2023/01/19 05:15:40;;;;;;;1.48;0.50;;;16.00;61.70;;;;;;10430029;28;20755;-57
2023/01/19 05:20:40;;;;;;;0.73;0.47;;;16.00;61.70;;;;;;10426956;28;20021;-59
2023/01/19 05:25:43;;;;;;;1.08;0.40;;;16.00;61.70;;;;;;10428662;28;20111;-58
2023/01/19 05:30:44;;;;;;;0.63;0.55;;;16.00;61.70;;;;;;10439161;28;20021;-57
2023/01/19 05:35:44;;;;;;;0.52;0.40;;;16.00;61.60;;;;;;10427872;28;20108;-58
2023/01/19 05:40:45;;;;;;;0.85;0.40;;;16.00;61.40;;;;;;10433592;28;20018;-57
2023/01/19 05:45:46;;;;;;;0.68;0.57;;;16.10;61.30;;;;;;10412026;28;20028;-57
2023/01/19 05:50:48;;;;;;;1.23;0.63;;;16.10;61.40;;;;;;10416459;28;20035;-58
2023/01/19 05:55:48;;;;;;;1.15;0.60;;;16.00;61.60;;;;;;10429589;28;20060;-57
2023/01/19 06:00:49;;;;;;;1.05;0.38;;;16.10;61.50;;;;;;10430149;28;20100;-57
2023/01/19 06:05:50;;;;;;;4.05;0.70;;;16.10;61.50;;;;;;10444788;28;20048;-59
2023/01/19 06:10:51;;;;;;;6.75;1.20;;;16.10;62.80;;;;;;10432256;28;20092;-57
2023/01/19 06:15:59;;;;;;;5.10;0.90;;;16.10;63.50;;;;;;10406102;28;20487;-57
2023/01/19 06:21:08;;;;;;;11.70;2.30;;;16.20;63.00;;;;;;10410752;28;20057;-57
2023/01/19 06:26:09;;;;;;;8.47;1.33;;;16.10;64.40;;;;;;10435869;28;20369;-58
2023/01/19 06:31:09;;;;;;;8.55;1.35;;;16.10;64.50;;;;;;10404960;28;20355;-60
2023/01/19 06:36:10;;;;;;;7.15;1.00;;;16.10;64.80;;;;;;10425855;28;20033;-59
2023/01/19 06:41:11;;;;;;;8.23;1.50;;;16.20;64.80;;;;;;10414946;28;20045;-59
2023/01/19 06:46:12;;;;;;;8.05;2.03;;;16.20;64.90;;;;;;10432631;28;20019;-58
2023/01/19 06:51:13;;;;;;;17.88;2.83;;;16.10;65.20;;;;;;10429593;28;20044;-58
2023/01/19 06:56:13;;;;;;;16.75;3.47;;;16.00;64.90;;;;;;10435178;28;20420;-58
2023/01/19 07:01:14;;;;;;;20.55;3.25;;;16.10;65.50;;;;;;10419281;28;20449;-58
2023/01/19 07:06:15;;;;;;;14.55;1.95;;;16.00;64.70;;;;;;10408557;28;20118;-58
2023/01/19 07:11:16;;;;;;;14.52;2.75;;;15.90;65.30;;;;;;10439633;28;20090;-58
2023/01/19 07:16:17;;;;;;;20.88;3.47;;;15.90;64.80;;;;;;10447572;28;20112;-57
2023/01/19 07:21:18;;;;;;;17.58;2.33;;;15.80;65.20;;;;;;10446627;28;20063;-57
2023/01/19 07:26:20;;;;;;;10.70;2.22;;;15.80;64.10;;;;;;10448609;28;20469;-56
2023/01/19 07:31:20;;;;;;;8.48;1.90;;;15.90;63.80;;;;;;10439916;28;20056;-58
2023/01/19 07:36:21;;;;;;;10.30;2.53;;;15.90;63.70;;;;;;10431161;28;20033;-57
2023/01/19 07:41:22;;;;;;;9.18;1.92;;;15.90;63.40;;;;;;10415397;28;20195;-58
2023/01/19 07:46:22;;;;;;;13.40;1.50;;;16.00;63.30;;;;;;10442109;28;20023;-57
2023/01/19 07:51:23;;;;;;;6.18;1.20;;;15.90;63.30;;;;;;10447126;28;20132;-58
2023/01/19 07:56:26;;;;;;;5.53;1.50;;;15.90;63.30;;;;;;10429871;28;20103;-57
2023/01/19 08:01:28;;;;;;;7.72;1.27;;;15.90;63.40;;;;;;10431137;28;20040;-57
2023/01/19 08:06:38;;;;;;;8.43;1.52;;;15.80;63.40;;;;;;10421894;28;20075;-57
2023/01/19 08:11:39;;;;;;;;;;;15.90;63.40;;;;;;10465206;28;20045;-56
2023/01/19 08:16:39;;;;;;;11.32;1.38;;;15.90;63.10;;;;;;10412074;28;19916;-56
2023/01/19 08:21:40;;;;;;;8.02;1.52;;;15.90;63.10;;;;;;10418765;28;20095;-57
2023/01/19 08:26:41;;;;;;;6.38;1.33;;;15.90;63.00;;;;;;10433546;28;20060;-57
2023/01/19 08:31:42;;;;;;;5.68;1.00;;;15.90;63.10;;;;;;10444067;28;20029;-58
2023/01/19 08:36:43;;;;;;;5.63;1.20;;;15.90;63.00;;;;;;10431336;28;20105;-58
2023/01/19 08:41:44;;;;;;;3.53;0.95;;;15.90;62.90;;;;;;10456715;28;20082;-56
2023/01/19 08:46:46;;;;;;;4.05;1.00;;;15.90;63.10;;;;;;10456837;28;20023;-57
2023/01/19 08:51:47;;;;;;;7.85;1.75;;;15.90;63.10;;;;;;10435946;28;20047;-58
2023/01/19 08:56:48;;;;;;;4.13;0.90;;;15.90;62.90;;;;;;10424003;28;20036;-58
2023/01/19 09:01:49;;;;;;;4.20;1.58;;;15.90;63.00;;;;;;10429376;28;20096;-57
2023/01/19 09:06:49;;;;;;;3.35;1.05;;;15.90;62.80;;;;;;10414373;28;20104;-57
2023/01/19 09:11:52;;;;;;;3.58;1.02;;;15.80;62.80;;;;;;10404879;28;20091;-56
2023/01/19 09:16:55;;;;;;;4.65;0.90;;;15.90;62.90;;;;;;10403087;28;20505;-57
2023/01/19 09:21:57;;;;;;;4.03;1.02;;;15.80;63.10;;;;;;10417689;28;20021;-57
2023/01/19 09:26:58;;;;;;;4.88;1.02;;;15.70;63.30;;;;;;10438389;28;20613;-57
2023/01/19 09:31:59;;;;;;;4.63;1.05;;;15.70;63.60;;;;;;10425132;28;20116;-58
2023/01/19 09:36:59;;;;;;;7.05;1.33;;;15.70;63.50;;;;;;10408979;28;20508;-57
2023/01/19 09:42:16;;;;;;;5.35;1.02;;;15.70;63.40;;;;;;10431257;28;20045;-57
2023/01/19 09:47:23;;;;;;;3.38;1.23;;;15.70;63.30;;;;;;10447146;28;20037;-57
2023/01/19 09:52:24;;;;;;;3.70;0.95;;;15.70;63.30;;;;;;10426343;28;20032;-56
2023/01/19 09:57:26;;;;;;;3.50;1.17;;;15.80;63.40;;;;;;10429515;28;20474;-58
2023/01/19 10:02:47;;;;;;;3.10;0.85;;;15.70;63.30;;;;;;10444056;28;20017;-57
2023/01/19 10:08:02;;;;;;;3.50;0.57;;;15.60;63.50;;;;;;10441459;28;20079;-56
2023/01/19 10:13:43;;;;;;;1.63;0.80;;;15.70;63.40;;;;;;10420740;28;20033;-57
2023/01/19 10:18:47;;;;;;;2.28;0.50;;;15.70;63.30;;;;;;10429288;28;20021;-57
2023/01/19 10:24:22;;;;;;;2.42;0.60;;;15.70;63.40;;;;;;10412791;28;20492;-57
2023/01/19 10:29:36;;;;;;;3.10;0.95;;;15.70;63.20;;;;;;10428594;28;20447;-58
2023/01/19 10:34:37;;;;;;;6.57;1.50;;;15.80;63.40;;;;;;10445898;28;20032;-58
2023/01/19 10:39:38;;;;;;;2.47;0.68;;;15.60;64.40;;;;;;10435174;28;20100;-58
2023/01/19 10:44:40;;;;;;;2.53;0.75;;;15.50;64.80;;;;;;10422391;28;20057;-59
2023/01/19 10:49:41;;;;;;;1.67;0.70;;;15.60;65.00;;;;;;10411640;28;20033;-58
2023/01/19 10:54:43;;;;;;;3.35;0.88;;;15.50;65.10;;;;;;10436937;28;20056;-58
2023/01/19 10:59:43;;;;;;;1.92;0.80;;;15.50;65.30;;;;;;10434811;28;20022;-58
2023/01/19 11:04:47;;;;;;;2.92;1.15;;;15.50;65.30;;;;;;10449051;28;20029;-57
2023/01/19 11:10:09;;;;;;;1.40;0.60;;;15.50;65.50;;;;;;10436405;28;20021;-58
2023/01/19 11:15:30;;;;;;;4.05;1.90;;;15.50;65.40;;;;;;10425572;28;20038;-58
2023/01/19 11:20:51;;;;;;;3.00;0.75;;;15.50;65.60;;;;;;10452668;28;20021;-59
2023/01/19 11:25:59;;;;;;;3.92;0.98;;;15.50;65.90;;;;;;10431404;28;20546;-57
2023/01/19 11:31:17;;;;;;;3.13;1.10;;;15.40;65.90;;;;;;10450504;28;20029;-58
2023/01/19 11:36:22;;;;;;;5.32;1.15;;;15.50;66.00;;;;;;10448614;28;20029;-58
2023/01/19 11:41:34;;;;;;;2.53;0.90;;;15.50;65.80;;;;;;10449513;28;20433;-58
2023/01/19 11:46:39;;;;;;;5.50;1.10;;;15.50;65.60;;;;;;10407194;28;20041;-57
2023/01/19 11:52:08;;;;;;;3.00;1.10;;;15.60;65.70;;;;;;10415086;28;20037;-57
2023/01/19 11:57:16;;;;;;;5.57;1.25;;;15.60;65.70;;;;;;10407162;28;20454;-58
2023/01/19 12:02:39;;;;;;;3.90;1.15;;;15.50;65.60;;;;;;10406519;28;20024;-57
2023/01/19 12:07:42;;;;;;;2.30;0.73;;;15.60;65.80;;;;;;10420704;28;20060;-58
2023/01/19 12:12:43;;;;;;;3.80;0.77;;;15.60;65.60;;;;;;10406098;28;20136;-57
2023/01/19 12:17:49;;;;;;;1.67;0.82;;;15.60;65.50;;;;;;10406099;28;20013;-59
2023/01/19 12:23:02;;;;;;;5.88;1.15;;;15.60;65.40;;;;;;10427279;28;20424;-58
2023/01/19 12:28:03;;;;;;;1.73;1.00;;;15.70;65.30;;;;;;10447054;28;20040;-58
2023/01/19 12:33:34;;;;;;;4.75;1.35;;;15.70;65.30;;;;;;10407265;28;20036;-58
2023/01/19 12:38:41;;;;;;;4.00;0.70;;;15.60;65.20;;;;;;10405038;28;20018;-58
2023/01/19 12:43:42;;;;;;;2.30;0.98;;;15.50;65.50;;;;;;10418004;28;20022;-58
2023/01/19 12:48:43;;;;;;;4.47;1.75;;;15.40;65.80;;;;;;10410704;28;20025;-57
2023/01/19 12:53:55;;;;;;;1.85;0.82;;;15.30;65.80;;;;;;10419960;28;20120;-57
2023/01/19 12:58:56;;;;;;;3.45;1.05;;;15.20;66.10;;;;;;10404473;28;20076;-57
2023/01/19 13:04:00;;;;;;;2.95;1.10;;;15.20;66.10;;;;;;10404115;28;20036;-57
2023/01/19 13:09:01;;;;;;;2.72;0.93;;;15.20;66.20;;;;;;10430587;28;20704;-56
2023/01/19 13:14:01;;;;;;;2.97;0.80;;;15.10;66.30;;;;;;10403459;28;20056;-57
2023/01/19 13:19:05;;;;;;;4.20;1.25;;;15.10;66.30;;;;;;10402951;28;20041;-57
2023/01/19 13:24:19;;;;;;;3.53;0.80;;;15.00;66.30;;;;;;10435204;28;20031;-58
2023/01/19 13:29:32;;;;;;;2.22;1.00;;;15.10;66.30;;;;;;10442874;28;20020;-57
2023/01/19 13:34:44;;;;;;;1.65;0.80;;;15.00;66.30;;;;;;10442360;28;20025;-58
2023/01/19 13:39:49;;;;;;;2.22;0.68;;;15.10;65.80;;;;;;10442242;28;20028;-57
2023/01/19 13:44:53;;;;;;;2.35;1.30;;;15.20;65.30;;;;;;10426425;28;20269;-58
2023/01/19 13:49:57;;;;;;;2.03;0.60;;;15.20;65.70;;;;;;10408166;28;20022;-57
2023/01/19 13:55:01;;;;;;;2.28;0.70;;;15.30;65.00;;;;;;10400249;28;20040;-56
2023/01/19 14:00:10;;;;;;;2.30;0.90;;;15.30;64.80;;;;;;10401123;28;20025;-56
2023/01/19 14:05:39;;;;;;;3.10;1.00;;;15.30;64.50;;;;;;10401784;28;20033;-58
2023/01/19 14:11:01;;;;;;;1.90;0.98;;;15.30;64.50;;;;;;10365081;28;1031221;-58
2023/01/19 14:16:16;;;;;;;2.47;0.70;;;15.40;64.30;;;;;;10429402;28;20037;-57
2023/01/19 14:21:17;;;;;;;2.05;0.80;;;15.50;63.80;;;;;;10410413;28;20362;-58
2023/01/19 14:26:36;;;;;;;2.40;0.60;;;15.60;63.50;;;;;;10442530;28;20013;-57
2023/01/19 14:32:03;;;;;;;1.02;0.57;;;15.60;63.20;;;;;;10459150;28;20020;-57
2023/01/19 14:37:36;;;;;;;1.17;0.60;;;15.70;63.10;;;;;;10437386;28;20512;-56
2023/01/19 14:42:59;;;;;;;1.65;0.63;;;15.70;63.00;;;;;;10411164;28;20021;-58
2023/01/19 14:48:18;;;;;;;1.50;0.50;;;15.70;62.90;;;;;;10415198;28;20108;-57
2023/01/19 14:53:24;;;;;;;1.27;0.40;;;15.70;62.90;;;;;;10413257;28;20041;-59
2023/01/19 14:58:28;;;;;;;1.83;0.73;;;15.70;62.90;;;;;;10405229;28;20021;-57
2023/01/19 15:03:30;;;;;;;1.50;0.60;;;15.70;62.80;;;;;;10401021;28;20022;-58
2023/01/19 15:08:33;;;;;;;1.70;0.60;;;15.80;62.50;;;;;;10402094;28;20022;-58
2023/01/19 15:13:33;;;;;;;3.85;0.88;;;15.70;62.60;;;;;;10400052;28;20085;-57
2023/01/19 15:18:34;;;;;;;1.65;0.65;;;15.70;63.20;;;;;;10408568;28;20028;-58
2023/01/19 15:23:35;;;;;;;1.58;0.80;;;15.70;62.70;;;;;;10436040;28;20551;-58
2023/01/19 15:28:36;;;;;;;1.50;0.70;;;15.70;62.60;;;;;;10449308;28;20025;-58
2023/01/19 15:33:36;;;;;;;1.95;0.70;;;15.80;62.50;;;;;;10432345;28;20492;-56
2023/01/19 15:38:37;;;;;;;0.88;0.50;;;15.70;62.40;;;;;;10448655;28;20110;-57
2023/01/19 15:43:38;;;;;;;1.75;0.82;;;15.70;62.50;;;;;;10427067;28;20076;-57
2023/01/19 15:48:38;;;;;;;2.08;0.80;;;15.80;62.40;;;;;;10407120;28;20364;-57
2023/01/19 15:53:40;;;;;;;2.75;1.30;;;15.70;62.50;;;;;;10420178;28;20068;-57
2023/01/19 15:58:41;;;;;;;1.15;0.43;;;15.70;62.40;;;;;;10428946;28;20104;-57
2023/01/19 16:03:42;;;;;;;2.35;0.70;;;15.80;62.60;;;;;;10410612;28;20029;-58
2023/01/19 16:08:43;;;;;;;1.50;0.60;;;15.70;62.40;;;;;;10406465;28;20368;-57
2023/01/19 16:13:45;;;;;;;2.28;0.70;;;15.80;62.30;;;;;;10405387;28;20045;-57
2023/01/19 16:18:46;;;;;;;2.70;0.93;;;15.80;62.10;;;;;;10405635;28;20026;-57
2023/01/19 16:23:46;;;;;;;3.78;1.05;;;15.80;62.30;;;;;;10439537;28;20152;-57
2023/01/19 16:28:47;;;;;;;2.63;1.10;;;15.70;62.50;;;;;;10430148;28;20115;-57
2023/01/19 16:33:48;;;;;;;3.22;1.80;;;15.80;62.00;;;;;;10428031;28;20056;-57
2023/01/19 16:38:49;;;;;;;21.58;3.13;;;15.80;62.10;;;;;;10438539;28;20192;-57
2023/01/19 16:43:55;;;;;;;12.68;4.00;;;15.50;63.10;;;;;;10444047;28;20029;-57
2023/01/19 16:49:05;;;;;;;13.20;4.65;;;15.60;61.80;;;;;;10437984;28;20025;-58
2023/01/19 16:54:06;;;;;;;8.80;4.65;;;15.60;62.10;;;;;;10435782;28;20037;-58
2023/01/19 16:59:11;;;;;;;14.35;5.80;;;16.00;64.50;;;;;;10443604;28;20078;-59
2023/01/19 17:04:13;;;;;;;13.80;5.22;;;16.30;65.80;;;;;;10415282;28;20033;-59
2023/01/19 17:09:13;;;;;;;17.85;6.07;;;16.50;65.00;;;;;;10431170;28;20052;-60
2023/01/19 17:14:19;;;;;;;16.73;5.05;;;16.50;64.90;;;;;;10415239;28;20053;-59
2023/01/19 17:19:20;;;;;;;16.52;5.05;;;16.40;64.50;;;;;;10441223;28;20017;-59
2023/01/19 17:24:21;;;;;;;20.52;5.15;;;16.40;64.30;;;;;;10441324;28;20014;-58
2023/01/19 17:29:22;;;;;;;17.77;4.63;;;16.20;64.60;;;;;;10433879;28;20013;-57
2023/01/19 17:34:22;;;;;;;22.20;5.18;;;16.20;65.30;;;;;;10436032;28;20125;-58
2023/01/19 17:39:23;;;;;;;22.27;5.43;;;16.20;65.30;;;;;;10428760;28;20109;-59
2023/01/19 17:44:24;;;;;;;23.55;5.93;;;16.10;66.00;;;;;;10425958;28;20491;-58
2023/01/19 17:49:24;;;;;;;34.25;5.50;;;16.00;66.20;;;;;;10427414;28;20112;-57
2023/01/19 17:54:25;;;;;;;17.58;5.78;;;15.90;66.30;;;;;;10419305;28;20036;-57
2023/01/19 17:59:26;;;;;;;18.48;5.57;;;15.80;66.60;;;;;;10444972;28;20048;-57
2023/01/19 18:04:26;;;;;;;19.42;5.80;;;15.70;66.30;;;;;;10419651;28;20024;-57
2023/01/19 18:09:27;;;;;;;14.95;5.30;;;15.60;65.90;;;;;;10439969;28;20849;-58
2023/01/19 18:14:28;;;;;;;13.45;5.30;;;15.50;66.00;;;;;;10445900;28;20049;-58
2023/01/19 18:19:28;;;;;;;14.43;5.35;;;15.50;65.90;;;;;;10443418;28;20040;-57
2023/01/19 18:24:29;;;;;;;15.05;6.00;;;15.40;66.10;;;;;;10439635;28;20370;-59
2023/01/19 18:29:30;;;;;;;17.48;6.15;;;15.50;65.50;;;;;;10444603;28;20031;-54
2023/01/19 18:34:30;;;;;;;14.77;6.30;;;15.50;65.50;;;;;;10439800;28;20113;-56
2023/01/19 18:39:31;;;;;;;12.93;5.35;;;15.60;64.90;;;;;;10418703;28;20048;-55
2023/01/19 18:44:32;;;;;;;15.48;7.18;;;15.70;64.60;;;;;;10450721;28;20018;-57
2023/01/19 18:49:32;;;;;;;17.75;5.50;;;15.80;64.40;;;;;;10432054;28;20071;-56
2023/01/19 18:54:33;;;;;;;12.20;5.68;;;15.80;64.40;;;;;;10425596;28;20108;-55
2023/01/19 18:59:34;;;;;;;14.95;5.30;;;15.80;64.30;;;;;;10435592;28;20108;-56
2023/01/19 19:04:34;;;;;;;11.32;4.82;;;15.80;64.40;;;;;;10411259;28;20109;-56
2023/01/19 19:09:35;;;;;;;15.50;5.68;;;15.80;64.40;;;;;;10443568;28;20417;-56
2023/01/19 19:14:36;;;;;;;12.90;5.15;;;15.70;64.20;;;;;;10435176;28;20125;-56
2023/01/19 19:19:37;;;;;;;12.82;5.10;;;15.70;64.20;;;;;;10432312;28;20022;-56
2023/01/19 19:24:39;;;;;;;8.20;4.72;;;15.70;64.10;;;;;;10444792;28;20624;-57
2023/01/19 19:29:40;;;;;;;13.18;5.32;;;15.70;63.80;;;;;;10451040;28;20029;-56
2023/01/19 19:34:41;;;;;;;15.98;6.85;;;15.80;63.70;;;;;;10433621;28;20110;-56
2023/01/19 19:39:41;;;;;;;13.07;5.50;;;15.80;63.60;;;;;;10408787;28;20067;-56
2023/01/19 19:44:42;;;;;;;10.32;5.43;;;15.80;63.50;;;;;;10431693;28;20028;-57
2023/01/19 19:49:43;;;;;;;16.45;5.03;;;15.80;63.50;;;;;;10432830;28;20079;-56
2023/01/19 19:54:46;;;;;;;11.13;5.80;;;15.90;63.80;;;;;;10430336;28;20091;-55
2023/01/19 19:59:47;;;;;;;20.00;5.53;;;15.90;63.00;;;;;;10441100;28;20045;-53
2023/01/19 20:04:47;;;;;;;12.35;5.80;;;15.90;63.30;;;;;;10409994;28;20405;-52
2023/01/19 20:09:49;;;;;;;11.20;6.03;;;15.90;63.80;;;;;;10422391;28;20045;-55
2023/01/19 20:14:50;;;;;;;12.30;6.18;;;15.90;63.50;;;;;;10407984;28;20045;-56
2023/01/19 20:19:51;;;;;;;12.50;6.03;;;15.80;63.50;;;;;;10440972;28;20077;-55
2023/01/19 20:24:51;;;;;;;14.13;6.10;;;15.80;63.40;;;;;;10436045;28;20104;-54
2023/01/19 20:29:56;;;;;;;10.30;6.30;;;15.80;63.30;;;;;;10406367;28;20109;-55
2023/01/19 20:34:57;;;;;;;11.77;6.25;;;15.80;63.30;;;;;;10444570;28;20036;-54
2023/01/19 20:39:58;;;;;;;12.02;5.38;;;15.80;63.20;;;;;;10446463;28;20029;-56
2023/01/19 20:44:59;;;;;;;10.65;5.88;;;15.80;63.10;;;;;;10432619;28;20086;-54
2023/01/19 20:50:00;;;;;;;9.55;5.00;;;15.80;63.10;;;;;;10428736;28;20075;-55
2023/01/19 20:55:00;;;;;;;12.75;6.32;;;15.80;62.90;;;;;;10421700;28;20160;-56
2023/01/19 21:00:01;;;;;;;12.73;5.50;;;15.80;62.80;;;;;;10431853;28;20368;-54
2023/01/19 21:05:02;;;;;;;9.65;5.00;;;15.80;62.70;;;;;;10449568;28;20100;-56
2023/01/19 21:10:03;;;;;;;9.63;5.70;;;15.90;62.60;;;;;;10438934;28;20078;-56
2023/01/19 21:15:05;;;;;;;14.63;6.18;;;15.90;62.10;;;;;;10446657;28;20033;-56
2023/01/19 21:20:06;;;;;;;8.70;5.25;;;16.00;62.00;;;;;;10435152;28;20028;-55
2023/01/19 21:25:07;;;;;;;7.88;5.90;;;16.00;62.00;;;;;;10433795;28;20017;-55
2023/01/19 21:30:09;;;;;;;8.32;5.20;;;15.90;62.00;;;;;;10438031;28;20049;-55
2023/01/19 21:35:10;;;;;;;8.68;5.40;;;15.90;62.00;;;;;;10447109;28;20806;-55
2023/01/19 21:40:11;;;;;;;7.88;4.35;;;15.90;61.90;;;;;;10415747;28;20112;-54
2023/01/19 21:45:12;;;;;;;6.85;4.93;;;15.90;61.90;;;;;;10429253;28;20055;-54
2023/01/19 21:50:13;;;;;;;7.47;4.38;;;16.00;61.90;;;;;;10445777;28;20029;-56
2023/01/19 21:55:13;;;;;;;7.13;4.57;;;16.00;61.80;;;;;;10425323;28;20037;-55
2023/01/19 22:00:15;;;;;;;9.27;4.30;;;16.00;61.60;;;;;;10406511;28;20022;-56
2023/01/19 22:05:16;;;;;;;8.73;4.50;;;16.00;61.50;;;;;;10405024;28;20106;-54
2023/01/19 22:10:17;;;;;;;7.10;4.32;;;16.00;61.50;;;;;;10415784;28;20029;-55
2023/01/19 22:15:17;;;;;;;6.25;4.50;;;16.10;61.40;;;;;;10433942;28;20026;-55
2023/01/19 22:20:18;;;;;;;6.03;3.70;;;16.10;61.30;;;;;;10405224;28;20022;-56
2023/01/19 22:25:22;;;;;;;6.75;4.47;;;16.00;61.30;;;;;;10450535;28;20021;-55
2023/01/19 22:30:23;;;;;;;6.95;3.92;;;16.10;61.40;;;;;;10455025;28;20029;-56
2023/01/19 22:35:24;;;;;;;6.78;5.00;;;16.10;61.40;;;;;;10418489;28;20030;-56
2023/01/19 22:40:24;;;;;;;4.75;3.65;;;16.00;61.40;;;;;;10428086;28;20026;-55
2023/01/19 22:45:25;;;;;;;6.78;4.47;;;16.00;61.50;;;;;;10434712;28;20475;-56
2023/01/19 22:50:26;;;;;;;5.80;4.07;;;16.00;61.50;;;;;;10440418;28;20113;-55
2023/01/19 22:55:28;;;;;;;6.70;4.03;;;16.00;61.50;;;;;;10425138;28;20061;-53
2023/01/19 23:00:29;;;;;;;7.75;5.07;;;16.00;61.50;;;;;;10435828;28;20036;-55
2023/01/19 23:05:33;;;;;;;4.97;3.28;;;16.00;61.40;;;;;;10425355;28;20132;-56
2023/01/19 23:10:38;;;;;;;5.00;3.35;;;16.00;61.50;;;;;;10427841;28;20022;-56
2023/01/19 23:15:39;;;;;;;4.47;3.20;;;16.00;61.40;;;;;;10413820;28;20065;-55
2023/01/19 23:20:40;;;;;;;5.45;3.60;;;16.00;61.30;;;;;;10461066;28;20100;-55
2023/01/19 23:25:40;;;;;;;6.07;3.47;;;16.00;61.30;;;;;;10452740;28;20527;-55
2023/01/19 23:30:41;;;;;;;5.72;4.03;;;16.00;61.30;;;;;;10418514;28;20117;-54
2023/01/19 23:35:42;;;;;;;5.57;3.53;;;16.00;61.30;;;;;;10410006;28;20037;-55
2023/01/19 23:40:42;;;;;;;5.75;4.35;;;16.00;61.30;;;;;;10419100;28;20057;-55
2023/01/19 23:45:43;;;;;;;5.35;3.00;;;16.00;61.20;;;;;;10432736;28;20472;-55
2023/01/19 23:50:43;;;;;;;6.10;3.70;;;16.00;61.20;;;;;;10429040;28;20048;-55
2023/01/19 23:55:44;;;;;;;4.00;3.00;;;16.00;61.30;;;;;;10430018;28;20125;-55
